createdAt,value
2023-01-25T00:03:44.528Z,61.05
2023-01-25T00:08:52.718Z,61.35
2023-01-25T00:13:55.264Z,61.66
2023-01-25T00:18:57.121Z,61.20
2023-01-25T00:23:59.055Z,61.51
2023-01-25T00:29:01.464Z,61.59
2023-01-25T00:34:31.060Z,61.07
2023-01-25T00:39:33.711Z,61.52
2023-01-25T00:44:35.733Z,61.73
2023-01-25T00:49:39.338Z,61.25
2023-01-25T00:54:41.292Z,61.72
2023-01-25T00:59:44.794Z,61.55
2023-01-25T01:04:49.123Z,61.69
2023-01-25T01:09:50.997Z,61.31
2023-01-25T01:14:52.865Z,61.72
2023-01-25T01:19:54.704Z,61.49
2023-01-25T01:24:56.548Z,61.68
2023-01-25T01:29:58.409Z,61.66
2023-01-25T01:35:00.296Z,61.87
2023-01-25T01:40:02.288Z,61.69
2023-01-25T01:45:42.502Z,61.65
2023-01-25T01:50:47.645Z,61.60
2023-01-25T01:55:49.679Z,61.39
2023-01-25T02:00:51.705Z,61.61
2023-01-25T02:05:56.957Z,61.69
2023-01-25T02:11:00.442Z,61.35
2023-01-25T02:16:02.652Z,61.43
2023-01-25T02:21:04.759Z,61.55
2023-01-25T02:26:07.888Z,61.72
2023-01-25T02:31:10.220Z,61.29
2023-01-25T02:36:12.071Z,61.77
2023-01-25T02:41:33.028Z,60.97
2023-01-25T02:46:37.672Z,61.59
2023-01-25T02:51:43.028Z,61.47
2023-01-25T02:56:45.360Z,61.54
2023-01-25T03:01:48.041Z,61.67
2023-01-25T03:06:51.979Z,61.13
2023-01-25T03:11:54.557Z,61.10
2023-01-25T03:16:58.187Z,61.74
2023-01-25T03:22:00.976Z,61.55
2023-01-25T03:27:13.476Z,61.81
2023-01-25T03:32:22.078Z,61.73
2023-01-25T03:37:27.437Z,62.10
2023-01-25T03:42:29.522Z,61.49
2023-01-25T03:47:33.412Z,61.14
2023-01-25T03:52:38.842Z,61.31
2023-01-25T03:57:41.873Z,61.03
2023-01-25T04:02:44.866Z,60.39
2023-01-25T04:07:51.151Z,61.19
2023-01-25T04:13:00.363Z,61.10
2023-01-25T04:18:02.509Z,60.80
2023-01-25T04:23:04.601Z,61.47
2023-01-25T04:28:11.396Z,61.05
2023-01-25T04:33:14.189Z,61.15
2023-01-25T04:38:17.684Z,61.36
2023-01-25T04:43:21.735Z,61.33
2023-01-25T04:48:32.805Z,60.79
2023-01-25T04:53:38.810Z,60.66
2023-01-25T04:58:42.141Z,60.44
2023-01-25T05:03:44.445Z,60.99
2023-01-25T05:09:10.041Z,60.71
2023-01-25T05:14:12.287Z,60.55
2023-01-25T05:19:14.525Z,60.28
2023-01-25T05:24:33.062Z,60.43
2023-01-25T05:29:41.112Z,60.58
2023-01-25T05:34:44.298Z,60.76
2023-01-25T05:39:46.898Z,60.32
2023-01-25T05:44:48.808Z,60.90
2023-01-25T05:49:51.797Z,60.42
2023-01-25T05:55:02.254Z,60.25
2023-01-25T06:00:06.300Z,60.65
2023-01-25T06:05:15.063Z,60.42
2023-01-25T06:10:17.565Z,60.70
2023-01-25T06:15:22.042Z,60.24
2023-01-25T06:20:24.271Z,60.38
2023-01-25T06:25:40.169Z,60.57
2023-01-25T06:30:42.130Z,60.32
2023-01-25T06:35:44.707Z,60.70
2023-01-25T06:40:46.553Z,60.30
2023-01-25T06:45:48.347Z,60.12
2023-01-25T06:50:55.802Z,60.15
2023-01-25T06:56:06.334Z,60.25
2023-01-25T07:01:22.713Z,60.21
2023-01-25T07:06:26.234Z,60.66
2023-01-25T07:11:28.127Z,60.27
2023-01-25T07:16:36.564Z,61.07
2023-01-25T07:21:38.520Z,61.44
2023-01-25T07:26:40.406Z,61.76
2023-01-25T07:31:42.730Z,61.98
2023-01-25T07:36:47.099Z,62.55
2023-01-25T07:41:48.966Z,62.00
2023-01-25T07:46:54.494Z,61.84
2023-01-25T07:51:56.368Z,61.35
2023-01-25T07:56:58.352Z,61.20
2023-01-25T08:02:00.500Z,61.60
2023-01-25T08:07:02.347Z,60.63
2023-01-25T08:12:05.397Z,60.73
2023-01-25T08:17:08.728Z,61.01
2023-01-25T08:22:10.583Z,60.75
2023-01-25T08:27:12.474Z,61.37
2023-01-25T08:32:14.312Z,61.22
2023-01-25T08:37:16.207Z,60.83
2023-01-25T08:42:18.097Z,61.09
2023-01-25T08:47:19.914Z,60.98
2023-01-25T08:52:22.902Z,61.10
2023-01-25T08:57:24.817Z,61.82
2023-01-25T09:02:26.658Z,61.47
2023-01-25T09:07:28.518Z,61.27
2023-01-25T09:12:31.708Z,61.35
2023-01-25T09:17:33.655Z,61.75
2023-01-25T09:22:35.812Z,60.99
2023-01-25T09:27:38.378Z,61.45
2023-01-25T09:32:40.461Z,61.49
2023-01-25T09:37:42.440Z,61.12
2023-01-25T09:43:09.747Z,60.56
2023-01-25T09:48:37.888Z,61.04
2023-01-25T09:53:47.765Z,60.37
2023-01-25T09:58:54.030Z,60.25
2023-01-25T10:04:04.476Z,60.74
2023-01-25T10:09:13.871Z,61.06
2023-01-25T10:14:18.580Z,60.24
2023-01-25T10:19:44.792Z,60.60
2023-01-25T10:25:15.980Z,60.69
2023-01-25T10:30:29.318Z,60.57
2023-01-25T10:35:39.225Z,60.47
2023-01-25T10:40:58.866Z,60.40
2023-01-25T10:46:02.054Z,60.40
2023-01-25T10:51:04.046Z,59.98
2023-01-25T10:56:17.207Z,60.23
2023-01-25T11:01:34.036Z,59.57
2023-01-25T11:06:38.645Z,59.81
2023-01-25T11:11:41.471Z,59.73
2023-01-25T11:16:48.411Z,60.07
2023-01-25T11:21:55.415Z,60.16
2023-01-25T11:27:26.314Z,59.73
2023-01-25T11:32:28.186Z,59.85
2023-01-25T11:38:11.284Z,60.78
2023-01-25T11:43:49.327Z,60.95
2023-01-25T11:48:51.129Z,59.95
2023-01-25T11:54:29.973Z,60.25
2023-01-25T11:59:31.761Z,60.13
2023-01-25T12:05:12.639Z,59.81
2023-01-25T12:10:21.308Z,59.69
2023-01-25T12:15:42.438Z,59.66
2023-01-25T12:21:10.405Z,59.72
2023-01-25T12:26:34.656Z,59.28
2023-01-25T12:31:54.830Z,59.54
2023-01-25T12:36:58.033Z,59.78
2023-01-25T12:42:42.793Z,59.62
2023-01-25T12:48:03.325Z,60.05
2023-01-25T12:53:33.609Z,59.42
2023-01-25T12:58:55.375Z,59.40
2023-01-25T13:04:38.960Z,58.94
2023-01-25T13:10:03.975Z,59.00
2023-01-25T13:15:34.744Z,58.98
2023-01-25T13:20:39.288Z,58.70
2023-01-25T13:25:41.128Z,59.21
2023-01-25T13:30:53.197Z,59.16
2023-01-25T13:35:55.133Z,59.11
2023-01-25T13:41:12.220Z,58.95
2023-01-25T13:46:17.659Z,59.31
2023-01-25T13:51:20.172Z,59.01
2023-01-25T13:56:34.707Z,58.52
2023-01-25T14:01:37.241Z,58.84
2023-01-25T14:06:41.235Z,58.83
2023-01-25T14:11:53.105Z,59.48
2023-01-25T14:17:18.101Z,58.71
2023-01-25T14:22:25.814Z,59.14
2023-01-25T14:27:27.744Z,58.79
2023-01-25T14:32:29.784Z,58.94
2023-01-25T14:37:31.599Z,59.01
2023-01-25T14:42:33.511Z,58.81
2023-01-25T14:47:35.939Z,58.84
2023-01-25T14:52:40.815Z,59.13
2023-01-25T14:57:43.158Z,58.99
2023-01-25T15:02:48.812Z,58.86
2023-01-25T15:07:56.000Z,59.39
2023-01-25T15:13:13.582Z,59.52
2023-01-25T15:18:57.575Z,59.16
2023-01-25T15:24:06.947Z,59.57
2023-01-25T15:29:20.203Z,59.51
2023-01-25T15:34:35.328Z,59.16
2023-01-25T15:39:37.197Z,59.22
2023-01-25T15:44:39.033Z,59.48
2023-01-25T15:49:40.868Z,58.74
2023-01-25T15:54:51.769Z,58.60
2023-01-25T15:59:56.195Z,58.96
2023-01-25T16:05:00.931Z,58.70
2023-01-25T16:10:02.800Z,58.84
2023-01-25T16:15:05.729Z,59.29
2023-01-25T16:20:15.770Z,58.64
2023-01-25T16:25:17.657Z,59.36
2023-01-25T16:30:24.006Z,58.97
2023-01-25T16:35:26.027Z,59.19
2023-01-25T16:40:36.832Z,58.60
2023-01-25T16:45:39.876Z,58.40
2023-01-25T16:50:41.922Z,58.80
2023-01-25T16:55:43.920Z,58.61
2023-01-25T17:00:46.367Z,58.85
2023-01-25T17:05:48.197Z,59.03
2023-01-25T17:10:50.697Z,59.24
2023-01-25T17:15:56.261Z,59.06
2023-01-25T17:21:05.913Z,58.67
2023-01-25T17:26:11.729Z,58.76
2023-01-25T17:31:19.268Z,58.80
2023-01-25T17:36:21.810Z,58.86
2023-01-25T17:41:23.637Z,59.12
2023-01-25T17:46:32.855Z,59.21
2023-01-25T17:51:36.355Z,59.16
2023-01-25T17:56:39.630Z,59.03
2023-01-25T18:01:43.152Z,58.64
2023-01-25T18:06:45.280Z,58.80
2023-01-25T18:11:48.037Z,59.08
2023-01-25T18:16:50.588Z,58.52
2023-01-25T18:21:52.433Z,58.83
2023-01-25T18:27:00.725Z,59.22
2023-01-25T18:32:02.708Z,59.39
2023-01-25T18:37:18.836Z,59.94
2023-01-25T18:42:22.166Z,59.82
2023-01-25T18:47:24.175Z,59.04
2023-01-25T18:52:26.424Z,59.44
2023-01-25T18:57:28.749Z,58.85
2023-01-25T19:02:31.188Z,59.42
2023-01-25T19:07:33.800Z,59.13
2023-01-25T19:12:36.420Z,58.83
2023-01-25T19:17:38.739Z,58.74
2023-01-25T19:22:41.172Z,58.76
2023-01-25T19:27:43.887Z,58.82
2023-01-25T19:32:45.831Z,58.82
2023-01-25T19:37:47.724Z,58.73
2023-01-25T19:42:49.721Z,58.53
2023-01-25T19:47:52.077Z,58.78
2023-01-25T19:52:56.152Z,58.62
2023-01-25T19:57:58.016Z,59.22
2023-01-25T20:03:14.823Z,58.78
2023-01-25T20:08:18.356Z,58.70
2023-01-25T20:13:20.388Z,58.68
2023-01-25T20:18:23.597Z,58.79
2023-01-25T20:23:26.020Z,59.31
2023-01-25T20:28:28.649Z,58.83
2023-01-25T20:33:32.390Z,59.30
2023-01-25T20:38:36.780Z,59.04
2023-01-25T20:43:38.816Z,58.85
2023-01-25T20:48:40.679Z,59.40
2023-01-25T20:53:44.360Z,59.81
2023-01-25T20:58:50.715Z,59.56
2023-01-25T21:03:56.986Z,59.41
2023-01-25T21:08:59.418Z,59.77
2023-01-25T21:14:01.330Z,59.95
2023-01-25T21:19:06.051Z,59.65
2023-01-25T21:24:09.206Z,59.60
2023-01-25T21:29:11.083Z,59.08
2023-01-25T21:34:12.906Z,59.39
2023-01-25T21:39:15.460Z,58.79
2023-01-25T21:44:35.855Z,59.36
2023-01-25T21:49:56.286Z,59.15
2023-01-25T21:54:58.103Z,58.53
2023-01-25T21:59:59.899Z,59.01
2023-01-25T22:05:01.731Z,58.80
2023-01-25T22:10:04.191Z,58.20
2023-01-25T22:15:07.203Z,58.56
2023-01-25T22:20:10.134Z,59.00
2023-01-25T22:25:12.156Z,58.64
2023-01-25T22:30:14.207Z,58.54
2023-01-25T22:35:16.170Z,58.51
2023-01-25T22:40:18.208Z,58.69
2023-01-25T22:45:20.204Z,58.57
2023-01-25T22:50:22.090Z,58.63
2023-01-25T22:55:23.972Z,58.54
2023-01-25T23:00:25.802Z,58.50
2023-01-25T23:05:27.905Z,58.32
2023-01-25T23:10:29.853Z,58.53
2023-01-25T23:15:31.783Z,58.54
2023-01-25T23:20:34.672Z,58.75
2023-01-25T23:25:38.986Z,58.72
2023-01-25T23:30:40.839Z,58.38
2023-01-25T23:35:42.668Z,58.34
2023-01-25T23:40:44.490Z,58.76
2023-01-25T23:45:46.315Z,58.66
2023-01-25T23:50:48.157Z,58.44
2023-01-25T23:55:59.315Z,58.72
